createdAt,value
2019-05-16T01:19:02.210Z,8.90
2019-05-16T02:10:28.436Z,9.00
2019-05-16T02:12:58.155Z,8.90
2019-05-16T02:16:27.944Z,8.90
2019-05-16T03:18:30.501Z,8.90
2019-05-16T03:21:30.714Z,10.70
2019-05-16T03:24:30.779Z,8.90
2019-05-16T03:30:34.793Z,8.80
2019-05-16T03:33:04.509Z,8.70
2019-05-16T03:35:34.134Z,10.40
2019-05-16T03:38:05.114Z,8.60
2019-05-16T03:40:37.297Z,8.40
2019-05-16T03:43:11.768Z,8.40
2019-05-16T03:45:44.594Z,8.30
2019-05-16T03:48:14.684Z,8.20
2019-05-16T03:54:12.269Z,8.50
2019-05-16T04:00:45.333Z,8.40
2019-05-16T06:15:26.756Z,11.30
2019-05-16T06:18:21.039Z,11.40
2019-05-16T06:21:11.497Z,11.40
2019-05-16T06:35:43.537Z,11.80
2019-05-16T06:39:13.415Z,11.80
2019-05-16T06:41:43.867Z,11.90
2019-05-16T06:44:11.538Z,12.00
2019-05-16T06:46:59.795Z,11.90
2019-05-16T06:56:52.656Z,12.50
2019-05-16T06:59:50.897Z,12.70
2019-05-16T07:02:30.464Z,12.90
2019-05-16T07:04:51.038Z,13.10
2019-05-16T07:07:20.467Z,13.20
2019-05-16T07:09:58.092Z,13.40
2019-05-16T07:12:20.152Z,13.40
2019-05-16T07:14:50.332Z,13.00
2019-05-16T07:17:17.384Z,12.90
2019-05-16T07:19:45.252Z,13.10
2019-05-16T07:22:13.045Z,13.30
2019-05-16T07:24:40.737Z,11.20
2019-05-16T07:27:11.594Z,13.60
2019-05-16T07:29:40.170Z,13.50
2019-05-16T07:32:08.097Z,13.30
2019-05-16T07:34:35.835Z,13.30
2019-05-16T07:37:03.549Z,13.30
2019-05-16T07:39:31.308Z,13.10
2019-05-16T07:41:59.972Z,12.90
2019-05-16T07:44:30.745Z,12.90
2019-05-16T07:46:57.396Z,13.00
2019-05-16T07:49:25.159Z,12.90
2019-05-16T07:51:53.044Z,12.80
2019-05-16T07:54:21.487Z,12.50
2019-05-16T07:56:58.825Z,12.60
2019-05-16T07:59:20.436Z,12.70
2019-05-16T08:01:53.743Z,13.00
2019-05-16T08:04:19.840Z,12.90
2019-05-16T08:09:17.287Z,12.90
2019-05-16T08:11:45.019Z,12.80
2019-05-16T08:14:12.844Z,12.90
2019-05-16T08:16:40.976Z,12.80
2019-05-16T08:19:10.295Z,12.70
2019-05-16T08:21:40.871Z,12.80
2019-05-16T08:24:14.517Z,10.40
2019-05-16T08:29:07.890Z,14.20
2019-05-16T08:31:35.777Z,14.10
2019-05-16T08:34:03.757Z,13.70
2019-05-16T08:36:31.503Z,13.60
2019-05-16T08:39:01.165Z,13.40
2019-05-16T08:41:31.643Z,13.90
2019-05-16T08:44:01.127Z,14.00
2019-05-16T08:46:32.089Z,14.00
2019-05-16T08:49:01.084Z,13.90
2019-05-16T08:50:11.753Z,14.00
2019-05-16T08:51:33.211Z,14.20
2019-05-16T08:54:01.580Z,14.80
2019-05-16T08:56:31.696Z,14.90
2019-05-16T08:59:01.817Z,15.10
2019-05-16T09:01:34.441Z,15.00
2019-05-16T09:04:01.419Z,15.30
2019-05-16T09:06:31.825Z,15.90
2019-05-16T09:09:09.904Z,15.90
2019-05-16T09:11:39.060Z,15.90
2019-05-16T09:13:57.983Z,16.00
2019-05-16T09:16:27.905Z,15.60
2019-05-16T09:18:57.593Z,15.30
2019-05-16T09:21:27.461Z,14.90
2019-05-16T09:23:57.593Z,14.60
2019-05-16T09:26:27.442Z,14.40
2019-05-16T09:28:56.903Z,14.50
2019-05-16T09:31:24.131Z,14.80
2019-05-16T09:33:52.231Z,14.80
2019-05-16T09:36:20.070Z,14.90
2019-05-16T09:38:48.705Z,16.40
2019-05-16T09:41:17.021Z,15.50
2019-05-16T09:43:49.282Z,14.70
2019-05-16T09:46:17.266Z,15.10
2019-05-16T09:48:47.860Z,15.30
2019-05-16T09:51:17.093Z,15.30
2019-05-16T09:53:47.003Z,15.30
2019-05-16T09:56:16.761Z,15.70
2019-05-16T09:58:46.563Z,15.70
2019-05-16T10:01:14.063Z,16.70
2019-05-16T10:03:41.978Z,16.80
2019-05-16T10:06:10.901Z,16.10
2019-05-16T10:08:38.828Z,16.10
2019-05-16T10:11:11.259Z,16.50
2019-05-16T10:13:42.124Z,16.70
2019-05-16T10:16:12.131Z,17.20
2019-05-16T10:18:42.272Z,17.00
2019-05-16T10:21:10.257Z,16.60
2019-05-16T10:23:38.577Z,16.50
2019-05-16T10:26:08.176Z,17.10
2019-05-16T10:28:38.222Z,17.10
2019-05-16T10:31:06.887Z,17.80
2019-05-16T10:33:39.002Z,17.00
2019-05-16T10:36:08.153Z,17.10
2019-05-16T10:38:37.454Z,17.70
2019-05-16T10:41:07.448Z,17.30
2019-05-16T10:43:37.074Z,17.10
2019-05-16T10:46:06.521Z,15.50
2019-05-16T10:48:34.599Z,17.30
2019-05-16T10:51:02.656Z,17.40
2019-05-16T10:54:00.068Z,17.50
2019-05-16T10:56:00.623Z,17.30
2019-05-16T10:58:42.614Z,16.70
2019-05-16T11:01:15.090Z,17.10
2019-05-16T11:03:28.193Z,17.10
2019-05-16T11:06:02.889Z,17.90
2019-05-16T11:08:25.653Z,18.10
2019-05-16T11:10:53.918Z,18.00
2019-05-16T11:13:22.265Z,18.00
2019-05-16T11:15:50.316Z,18.10
2019-05-16T11:18:18.667Z,18.50
2019-05-16T11:20:49.144Z,18.10
2019-05-16T11:23:22.337Z,18.40
2019-05-16T11:25:47.123Z,18.20
2019-05-16T11:28:17.490Z,18.20
2019-05-16T11:30:47.399Z,18.30
2019-05-16T11:33:17.162Z,18.20
2019-05-16T11:35:47.288Z,16.40
2019-05-16T11:38:14.268Z,17.50
2019-05-16T11:40:42.400Z,17.30
2019-05-16T11:43:20.767Z,17.00
2019-05-16T11:45:46.713Z,16.90
2019-05-16T11:48:16.868Z,16.50
2019-05-16T11:50:44.390Z,15.60
2019-05-16T15:27:47.805Z,11.80
2019-05-16T15:30:17.136Z,11.70
2019-05-16T15:32:47.705Z,11.70
2019-05-16T15:35:17.765Z,11.70
2019-05-16T15:37:44.349Z,13.50
2019-05-16T15:40:19.352Z,11.90
2019-05-16T15:42:47.119Z,11.70
2019-05-16T15:45:34.708Z,11.60
2019-05-16T15:53:17.644Z,11.60
2019-05-16T15:55:47.098Z,11.60
2019-05-16T15:58:17.815Z,11.60
2019-05-16T16:00:54.039Z,11.60
2019-05-16T16:03:21.863Z,11.60
2019-05-16T16:05:54.843Z,11.50
2019-05-16T16:08:31.159Z,11.40
2019-05-16T16:11:07.226Z,11.50
2019-05-16T16:13:33.424Z,11.40
2019-05-16T16:16:01.826Z,11.30
2019-05-16T16:18:43.308Z,13.50
2019-05-16T16:21:17.132Z,11.40
2019-05-16T16:23:51.327Z,10.50
2019-05-16T16:26:28.588Z,8.60
2019-05-16T16:29:07.314Z,11.50
2019-05-16T16:31:37.423Z,11.50
2019-05-16T16:34:57.657Z,10.50
2019-05-16T16:36:41.797Z,11.50
2019-05-16T16:39:11.095Z,10.60
2019-05-16T16:41:42.456Z,11.60
2019-05-16T16:44:11.430Z,11.40
2019-05-16T16:46:40.505Z,11.50
2019-05-16T16:49:42.713Z,11.40
2019-05-16T16:53:13.923Z,11.40
2019-05-16T16:59:44.098Z,11.40
2019-05-16T17:13:09.513Z,11.40
2019-05-16T17:15:50.638Z,11.50
2019-05-16T17:26:57.588Z,11.50
2019-05-16T17:34:10.155Z,11.50
2019-05-16T17:45:27.152Z,11.30
2019-05-16T17:47:57.207Z,11.30
2019-05-16T17:55:01.851Z,11.30
2019-05-16T17:57:07.562Z,11.30
2019-05-16T17:59:37.956Z,11.20
2019-05-16T18:02:56.978Z,11.10
2019-05-16T18:04:41.072Z,11.20
2019-05-16T18:07:10.463Z,11.40
2019-05-16T18:09:48.450Z,11.10
2019-05-16T18:12:14.601Z,11.20
2019-05-16T18:14:42.427Z,11.10
2019-05-16T18:17:12.300Z,11.10
2019-05-16T18:19:40.014Z,11.20
2019-05-16T18:22:07.972Z,12.10
2019-05-16T18:24:40.759Z,11.10
2019-05-16T18:27:08.657Z,10.90
2019-05-16T18:29:37.368Z,11.00
2019-05-16T18:32:06.976Z,11.00
2019-05-16T18:34:37.463Z,10.80
2019-05-16T18:37:06.821Z,13.60
2019-05-16T18:39:39.377Z,10.30
2019-05-16T18:42:05.341Z,10.90
2019-05-16T18:51:17.263Z,10.90
2019-05-16T18:53:46.513Z,11.20
2019-05-16T18:56:18.158Z,11.10
2019-05-16T18:58:46.621Z,10.50
2019-05-16T19:01:17.390Z,11.60
2019-05-16T19:03:46.461Z,11.10
2019-05-16T19:06:17.470Z,10.90
2019-05-16T19:08:45.606Z,10.80
2019-05-16T19:11:13.270Z,10.70
2019-05-16T19:13:40.936Z,10.80
2019-05-16T19:16:08.701Z,10.80
2019-05-16T19:18:36.862Z,10.80
2019-05-16T19:21:07.325Z,11.10
2019-05-16T19:23:34.513Z,10.20
2019-05-16T19:26:02.234Z,10.70
2019-05-16T19:28:29.862Z,13.30
2019-05-16T19:30:57.729Z,11.20
2019-05-16T19:33:25.990Z,10.70
2019-05-16T19:35:53.598Z,10.60
2019-05-16T19:38:21.366Z,10.70
2019-05-16T19:40:49.535Z,10.70
2019-05-16T19:43:17.536Z,10.70
2019-05-16T19:45:46.547Z,10.70
2019-05-16T19:48:22.219Z,10.90
2019-05-16T19:50:49.933Z,10.70
2019-05-16T19:53:22.950Z,10.70
2019-05-16T19:56:46.939Z,10.60
2019-05-16T19:59:16.716Z,12.40
2019-05-16T20:02:07.484Z,10.60
2019-05-16T20:04:36.622Z,10.60
2019-05-16T20:07:07.238Z,10.50
2019-05-16T20:09:42.266Z,10.60
2019-05-16T20:12:12.318Z,10.60
2019-05-16T20:14:40.142Z,10.50
2019-05-16T20:17:07.900Z,10.60
2019-05-16T20:19:36.417Z,10.70
2019-05-16T20:22:04.586Z,10.60
2019-05-16T20:24:32.355Z,10.80
2019-05-16T20:27:00.011Z,10.80
2019-05-16T20:29:28.194Z,10.80
2019-05-16T20:31:56.405Z,11.00
2019-05-16T20:34:26.786Z,10.80
2019-05-16T20:36:57.075Z,10.80
2019-05-16T20:39:26.694Z,10.80
2019-05-16T20:41:53.986Z,10.90
2019-05-16T20:44:21.623Z,10.80
2019-05-16T20:46:49.729Z,10.90
2019-05-16T20:49:19.219Z,10.90
2019-05-16T20:51:49.997Z,10.90
2019-05-16T20:54:20.405Z,11.00
2019-05-16T20:56:49.989Z,10.90
2019-05-16T20:59:17.769Z,8.90
2019-05-16T21:34:23.786Z,10.40
2019-05-16T21:36:51.472Z,10.50
2019-05-16T21:39:19.151Z,10.30
2019-05-16T21:41:47.385Z,10.40
2019-05-16T21:44:16.932Z,9.10
2019-05-16T21:46:46.558Z,10.60
2019-05-16T21:49:13.765Z,10.40
2019-05-16T21:51:41.428Z,10.40
2019-05-16T21:54:09.086Z,10.30
2019-05-16T21:56:37.283Z,10.30
2019-05-16T21:59:06.941Z,10.40
2019-05-16T22:01:34.533Z,10.50
2019-05-16T22:04:02.166Z,10.50
2019-05-16T22:06:29.763Z,10.40
2019-05-16T22:08:57.529Z,10.30
2019-05-16T22:11:26.383Z,10.30
2019-05-16T22:13:53.989Z,10.20
2019-05-16T22:16:21.611Z,10.20
2019-05-16T22:18:49.207Z,10.20
2019-05-16T22:21:16.811Z,10.20
2019-05-16T22:23:46.422Z,10.30
2019-05-16T22:26:16.637Z,10.30
2019-05-16T22:28:43.450Z,10.20
2019-05-16T22:31:11.048Z,10.10
2019-05-16T22:33:38.639Z,10.10
2019-05-16T22:36:07.007Z,10.00
2019-05-16T22:38:34.732Z,8.90
2019-05-16T22:41:02.642Z,10.10
2019-05-16T22:43:30.250Z,10.10
2019-05-16T22:45:57.985Z,10.10
2019-05-16T22:48:26.638Z,10.00
2019-05-16T22:50:56.443Z,10.10
2019-05-16T22:53:23.827Z,10.00
2019-05-16T22:55:51.561Z,9.90
2019-05-16T22:58:19.186Z,10.00
2019-05-16T23:00:46.830Z,10.00
2019-05-16T23:03:14.453Z,10.10
2019-05-16T23:05:42.074Z,10.10
2019-05-16T23:08:10.137Z,10.10
2019-05-16T23:10:37.873Z,10.10
2019-05-16T23:13:06.782Z,10.00
2019-05-16T23:15:34.677Z,10.00
2019-05-16T23:18:02.401Z,10.00
2019-05-16T23:20:30.007Z,10.00
2019-05-16T23:22:57.605Z,10.00
2019-05-16T23:25:25.179Z,10.10
2019-05-16T23:27:52.756Z,10.10
2019-05-16T23:30:20.417Z,10.10
2019-05-16T23:32:48.193Z,10.00
2019-05-16T23:35:15.802Z,10.00
2019-05-16T23:37:43.297Z,9.90
2019-05-16T23:40:11.073Z,10.00
2019-05-16T23:42:38.733Z,9.90
2019-05-16T23:45:08.701Z,9.80
2019-05-16T23:47:36.583Z,9.80
2019-05-16T23:50:04.238Z,10.50
2019-05-16T23:52:31.877Z,9.90
2019-05-16T23:54:59.459Z,9.90
2019-05-16T23:57:27.009Z,9.80
2019-05-16T23:59:56.623Z,9.80
